Flight Track Log - Related Links

Times and Time Zones

All times are in EDT time to prevent confusion due to time zone crossing. See the SKW4453 flight status page for this flight to view local times or setup timezone preferences in your user account.

Time Position Orientation Groundspeed Altitude Reporting Facility
EDT Latitude Longitude Course Direction KTS MPH feet Rate Location/Type
Sun 07:41:45 PM 33.9500 -118.4833 342° North 208 239 1,700  Level Southern California TRACON
Sun 07:42:58 PM 33.9597 -118.5794 277° West 264 304 4,500 2,578 Climbing Los Angeles Center
Sun 07:43:00 PM 34.0021 -118.7020 320° Northwest  Level FlightAware Approximate
Sun 07:44:00 PM 34.0847 -118.6622 34° Northeast  Level FlightAware Approximate
Sun 07:44:00 PM 33.9858 -118.6775 288° West 284 327 7,500  Level Los Angeles Center
Sun 07:45:00 PM 34.1761 -118.6120 22° Northeast  Level FlightAware Approximate
Sun 07:45:02 PM 34.0542 -118.7078 340° North 284 327 8,400  Level Los Angeles Center
Sun 07:46:00 PM 34.2748 -118.6000 North  Level FlightAware Approximate
Sun 07:46:04 PM 34.1192 -118.6539 34° Northeast 271 312 10,000  Level Los Angeles Center
Sun 07:47:00 PM 34.3639 -118.6456 342° North  Level FlightAware Approximate
Sun 07:47:06 PM 34.1989 -118.6522 North 290 334 12,200  Level Los Angeles Center
Sun 07:48:08 PM 34.2892 -118.6728 349° North 327 376 13,200 1,113 Climbing Los Angeles Center
Sun 07:49:10 PM 34.3925 -118.6953 350° North 373 429 14,500 1,355 Climbing Los Angeles Center
Sun 07:50:12 PM 34.4972 -118.7189 349° North 382 440 16,000 1,452 Climbing Los Angeles Center
Sun 07:51:14 PM 34.6025 -118.7608 342° North 400 460 17,500 1,548 Climbing Los Angeles Center
Sun 07:52:16 PM 34.7256 -118.8250 337° Northwest 402 463 19,200 1,500 Climbing Los Angeles Center
Sun 07:53:18 PM 34.8281 -118.8881 333° Northwest 416 479 20,600 1,161 Climbing Los Angeles Center
Sun 07:54:20 PM 34.9178 -118.9736 322° Northwest 422 486 21,600 968 Climbing Los Angeles Center
Sun 07:55:22 PM 35.0067 -119.0611 321° Northwest 415 478 22,600 968 Climbing Los Angeles Center
Sun 07:56:24 PM 35.0944 -119.1464 322° Northwest 406 467 23,600 968 Climbing Los Angeles Center
Sun 07:57:26 PM 35.2019 -119.2514 321° Northwest 413 475 24,600 1,065 Climbing Los Angeles Center
Sun 07:58:28 PM 35.2936 -119.3394 322° Northwest 418 481 25,800 1,306 Climbing Los Angeles Center
Sun 07:59:30 PM 35.3861 -119.4314 321° Northwest 425 489 27,300 1,210 Climbing Los Angeles Center
Sun 08:00:32 PM 35.4775 -119.5225 321° Northwest 426 490 28,300 968 Climbing Los Angeles Center
Sun 08:01:34 PM 35.5725 -119.6167 321° Northwest 434 499 29,300 914 Climbing Los Angeles Center
Sun 08:02:17 PM 35.6472 -119.6911 321° Northwest 443 510 29,900 404 Climbing Oakland Center
Sun 08:03:18 PM 35.7467 -119.7903 321° Northwest 461 531 30,000 49 Climbing Oakland Center
Sun 08:04:20 PM 35.8503 -119.8944 321° Northwest 480 552 30,000  Level Oakland Center
Sun 08:05:21 PM 35.9542 -119.9983 321° Northwest 485 558 30,000  Level Oakland Center
Sun 08:06:22 PM 36.0786 -120.1253 321° Northwest 487 560 30,000  Level Oakland Center
Sun 08:07:24 PM 36.1806 -120.2275 321° Northwest 478 550 30,000  Level Oakland Center
Sun 08:08:25 PM 36.2833 -120.3317 321° Northwest 479 551 30,000 -488 Level Oakland Center
Sun 08:09:27 PM 36.3872 -120.4417 320° Northwest 490 564 29,000 -1,268 Descending Oakland Center
Sun 08:10:28 PM 36.4911 -120.5442 322° Northwest 481 554 27,400 -1,525 Descending Oakland Center
Sun 08:11:29 PM 36.5897 -120.6489 320° Northwest 470 541 25,900 -1,659 Descending Oakland Center
Sun 08:12:31 PM 36.6878 -120.7517 320° Northwest 464 534 24,000 -2,000 Descending Oakland Center
Sun 08:13:32 PM 36.7836 -120.8525 320° Northwest 454 522 21,800 -2,262 Descending Oakland Center
Sun 08:14:33 PM 36.8742 -120.9600 316° Northwest 431 496 19,400 -2,341 Descending Oakland Center
Sun 08:15:35 PM 36.9614 -121.0586 318° Northwest 423 487 17,000 -2,244 Descending Oakland Center
Sun 08:16:36 PM 37.0511 -121.1614 318° Northwest 419 482 14,800 -2,164 Descending Oakland Center
Sun 08:17:37 PM 37.1469 -121.2756 316° Northwest 411 473 12,600 -2,098 Descending Oakland Center
Sun 08:18:39 PM 37.2283 -121.3703 317° Northwest 401 461 10,500 -1,268 Descending Oakland Center
Sun 08:19:40 PM 37.2994 -121.4550 317° Northwest 352 405 10,000 -984 Descending Oakland Center
Sun 08:20:41 PM 37.3606 -121.5233 318° Northwest 295 339 8,500 -1,438 Descending Oakland Center
Sun 08:21:16 PM 37.4000 -121.5667 319° Northwest 290 334 7,700 -1,263 Descending Northern Cal TRACON
Sun 08:22:16 PM 37.4333 -121.6500 297° West 278 320 6,500 -850 Descending Northern Cal TRACON
Sun 08:23:16 PM 37.4833 -121.7333 307° West 284 327 6,000 -250 Descending Northern Cal TRACON
Sun 08:24:16 PM 37.5167 -121.8167 297° West 261 300 6,000 -350 Level Northern Cal TRACON
Sun 08:25:16 PM 37.5333 -121.9000 284° West 241 277 5,300 -950 Descending Northern Cal TRACON
Sun 08:26:16 PM 37.5667 -121.9667 302° West 231 266 4,100 -850 Descending Northern Cal TRACON
Sun 08:27:16 PM 37.6000 -122.0333 302° West 196 226 3,600 -500 Descending Northern Cal TRACON

Login

Don't have an account? Register now (free) for customized features, flight alerts, and more!